Time;durP1;ratioP1;P1;durP2;ratioP2;P2;SDS_P1;SDS_P2;PMS_P1;PMS_P2;Temp;Humidity;BMP_temperature;BMP_pressure;BME280_temperature;BME280_humidity;BME280_pressure;Samples;Min_cycle;Max_cycle;Signal;HPM_P1;HPM_P2
2024/01/20 00:00:34;;;;;;;6.53;4.18;;;;;;;3.40;100.00;100318.19;5069998;28;20029;-74
2024/01/20 00:03:01;;;;;;;4.53;3.63;;;;;;;3.39;100.00;100324.31;5070059;28;20130;-72
2024/01/20 00:05:26;;;;;;;5.50;3.63;;;;;;;3.35;100.00;100325.41;5069511;28;20035;-74
2024/01/20 00:07:51;;;;;;;7.20;4.07;;;;;;;3.35;100.00;100324.56;5070396;28;20337;-74
2024/01/20 00:10:17;;;;;;;4.18;3.78;;;;;;;3.33;100.00;100326.38;5068887;28;20025;-73
2024/01/20 00:12:43;;;;;;;7.13;4.35;;;;;;;3.32;100.00;100325.53;5069499;28;20492;-73
2024/01/20 00:15:09;;;;;;;5.80;4.18;;;;;;;3.28;100.00;100331.84;5069553;28;20456;-72
2024/01/20 00:17:39;;;;;;;4.53;4.07;;;;;;;3.29;100.00;100325.72;5069338;28;20040;-74
2024/01/20 00:20:05;;;;;;;5.78;4.22;;;;;;;3.26;100.00;100320.63;5069292;28;20135;-74
2024/01/20 00:22:30;;;;;;;7.32;4.65;;;;;;;3.24;100.00;100325.13;5068873;28;20040;-74
2024/01/20 00:24:59;;;;;;;7.65;4.65;;;;;;;3.24;100.00;100333.75;5069528;28;20198;-74
2024/01/20 00:27:25;;;;;;;8.82;4.90;;;;;;;3.24;100.00;100327.72;5069415;28;20029;-74
2024/01/20 00:29:50;;;;;;;7.85;4.68;;;;;;;3.24;100.00;100343.38;5068699;28;20149;-74
2024/01/20 00:32:16;;;;;;;7.25;5.15;;;;;;;3.25;100.00;100339.81;5069418;28;20835;-75
2024/01/20 00:34:41;;;;;;;5.88;4.90;;;;;;;3.22;100.00;100345.19;5069452;28;20119;-75
2024/01/20 00:37:07;;;;;;;8.40;4.63;;;;;;;3.16;100.00;100348.13;5069119;28;20041;-74
2024/01/20 00:39:32;;;;;;;5.80;5.18;;;;;;;3.16;100.00;100345.50;5069198;28;20047;-74
2024/01/20 00:41:57;;;;;;;6.00;5.40;;;;;;;3.15;100.00;100349.03;5068544;28;20033;-74
2024/01/20 00:44:23;;;;;;;8.45;5.00;;;;;;;3.14;100.00;100352.56;5068862;28;20399;-74
2024/01/20 00:46:48;;;;;;;5.30;4.78;;;;;;;3.14;100.00;100352.56;5069069;28;20051;-73
2024/01/20 00:49:13;;;;;;;6.00;5.38;;;;;;;3.13;100.00;100350.84;5069099;28;20028;-74
2024/01/20 00:51:39;;;;;;;5.68;5.03;;;;;;;3.09;100.00;100346.72;5069310;28;20032;-74
2024/01/20 00:54:04;;;;;;;6.15;4.90;;;;;;;3.03;100.00;100349.63;5069244;28;20071;-74
2024/01/20 00:56:30;;;;;;;7.47;4.68;;;;;;;3.02;100.00;100354.00;5068323;28;20036;-74
2024/01/20 00:58:55;;;;;;;9.20;5.15;;;;;;;2.99;100.00;100359.38;5067775;28;20039;-74
2024/01/20 01:01:21;;;;;;;7.47;5.35;;;;;;;2.94;100.00;100365.75;5068592;28;20031;-73
2024/01/20 01:03:46;;;;;;;8.75;6.07;;;;;;;2.89;100.00;100358.13;5068904;28;20546;-74
2024/01/20 01:06:12;;;;;;;9.65;6.10;;;;;;;2.87;100.00;100362.59;5067506;28;20029;-74
2024/01/20 01:08:37;;;;;;;7.00;6.30;;;;;;;2.87;100.00;100366.03;5069233;28;20054;-73
2024/01/20 01:11:03;;;;;;;7.10;6.28;;;;;;;2.84;100.00;100376.59;5069121;28;20040;-74
2024/01/20 01:13:28;;;;;;;5.90;5.40;;;;;;;2.80;100.00;100372.47;5062213;28;20079;-74
2024/01/20 01:15:55;;;;;;;8.75;6.50;;;;;;;2.79;100.00;100375.97;5065616;28;20046;-73
2024/01/20 01:18:20;;;;;;;6.28;5.68;;;;;;;2.78;100.00;100382.13;5068752;28;20032;-73
2024/01/20 01:20:46;;;;;;;9.15;5.82;;;;;;;2.78;100.00;100382.13;5069386;28;20485;-73
2024/01/20 01:23:11;;;;;;;7.90;6.45;;;;;;;2.77;100.00;100385.63;5069024;28;20102;-74
2024/01/20 01:25:38;;;;;;;7.32;6.40;;;;;;;2.78;100.00;100392.53;5069383;28;20094;-73
2024/01/20 01:28:03;;;;;;;11.40;7.50;;;;;;;2.76;100.00;100403.97;5070188;28;20036;-73
2024/01/20 01:30:29;;;;;;;7.75;6.32;;;;;;;2.72;100.00;100402.41;5069436;28;20431;-73
2024/01/20 01:32:55;;;;;;;7.47;6.78;;;;;;;2.72;100.00;100412.81;5069658;28;20052;-74
2024/01/20 01:35:20;;;;;;;8.50;7.00;;;;;;;2.70;100.00;100409.47;5069106;28;20042;-74
2024/01/20 01:37:46;;;;;;;11.85;7.22;;;;;;;2.70;100.00;100410.31;5069016;28;20021;-74
2024/01/20 01:40:13;;;;;;;8.25;6.85;;;;;;;2.69;100.00;100416.44;5069092;28;20103;-74
2024/01/20 01:42:38;;;;;;;9.25;8.27;;;;;;;2.68;100.00;100417.34;5068360;28;20081;-73
2024/01/20 01:45:04;;;;;;;9.73;7.80;;;;;;;2.70;100.00;100425.09;5067139;28;20457;-74
2024/01/20 01:47:30;;;;;;;7.90;7.30;;;;;;;2.66;100.00;100429.59;5068450;28;20040;-74
2024/01/20 01:49:55;;;;;;;10.02;8.25;;;;;;;2.63;100.00;100424.56;5072813;28;20024;-74
2024/01/20 01:52:23;;;;;;;8.98;7.57;;;;;;;2.57;100.00;100424.84;5071809;28;20461;-74
2024/01/20 01:54:49;;;;;;;9.88;8.57;;;;;;;2.53;100.00;100433.72;5073143;28;20433;-74
2024/01/20 01:57:16;;;;;;;9.43;7.95;;;;;;;2.56;100.00;100432.72;5071319;28;20059;-74
2024/01/20 01:59:44;;;;;;;9.63;8.80;;;;;;;2.54;100.00;100440.59;5067882;28;20036;-74
2024/01/20 02:02:09;;;;;;;9.48;8.57;;;;;;;2.53;100.00;100444.13;5070076;28;20024;-73
2024/01/20 02:04:35;;;;;;;11.63;8.52;;;;;;;2.52;100.00;100455.47;5071377;28;20427;-74
2024/01/20 02:07:00;;;;;;;11.85;8.32;;;;;;;2.47;100.00;100460.06;5073124;28;20033;-73
2024/01/20 02:09:26;;;;;;;8.90;8.00;;;;;;;2.45;100.00;100454.06;5070345;28;20275;-73
2024/01/20 02:11:52;;;;;;;9.90;8.02;;;;;;;2.43;100.00;100458.47;5071632;28;20030;-72
2024/01/20 02:14:19;;;;;;;8.82;8.00;;;;;;;2.41;100.00;100463.78;5068870;28;20568;-72
2024/01/20 02:16:45;;;;;;;10.75;8.90;;;;;;;2.42;100.00;100467.19;5069536;28;20078;-74
2024/01/20 02:19:10;;;;;;;12.55;9.23;;;;;;;2.40;100.00;100469.06;5072404;28;20388;-72
2024/01/20 02:21:38;;;;;;;9.82;8.70;;;;;;;2.39;100.00;100472.56;5072468;28;20049;-73
2024/01/20 02:24:05;;;;;;;10.07;9.00;;;;;;;2.39;100.00;100475.16;5072081;28;20555;-73
2024/01/20 02:26:30;;;;;;;9.55;8.65;;;;;;;2.37;100.00;100474.38;5072834;28;20028;-73
2024/01/20 02:28:56;;;;;;;11.30;9.25;;;;;;;2.37;100.00;100479.59;5072584;28;20362;-72
2024/01/20 02:31:21;;;;;;;9.73;8.57;;;;;;;2.30;100.00;100483.38;5071505;28;20032;-73
2024/01/20 02:33:47;;;;;;;9.10;8.30;;;;;;;2.23;100.00;100487.19;5071181;28;20032;-73
2024/01/20 02:36:12;;;;;;;10.07;9.18;;;;;;;2.15;100.00;100484.91;5071783;28;20029;-73
2024/01/20 02:38:38;;;;;;;14.35;9.73;;;;;;;2.12;100.00;100485.03;5070629;28;20493;-73
2024/01/20 02:41:03;;;;;;;10.25;9.23;;;;;;;2.06;100.00;100491.34;5072477;28;20033;-74
2024/01/20 02:43:28;;;;;;;11.60;10.00;;;;;;;2.03;100.00;100496.72;5071540;28;20036;-74
2024/01/20 02:45:54;;;;;;;13.75;10.27;;;;;;;2.00;100.00;100496.00;5071597;28;20059;-74
2024/01/20 02:48:19;;;;;;;12.10;10.30;;;;;;;1.96;100.00;100500.47;5070852;28;20044;-73
2024/01/20 02:50:45;;;;;;;11.07;9.93;;;;;;;1.92;100.00;100504.13;5071850;28;20029;-73
2024/01/20 02:53:10;;;;;;;11.90;10.70;;;;;;;1.89;100.00;100500.78;5069848;28;20037;-73
2024/01/20 02:55:36;;;;;;;12.60;11.23;;;;;;;1.86;100.00;100499.19;5071572;28;20033;-74
2024/01/20 02:58:01;;;;;;;12.68;11.45;;;;;;;1.83;100.00;100499.28;5071606;28;20036;-74
2024/01/20 03:00:28;;;;;;;12.90;11.70;;;;;;;1.79;100.00;100499.50;5069898;28;20082;-73
2024/01/20 03:02:54;;;;;;;15.88;11.40;;;;;;;1.78;100.00;100495.19;5070811;28;20127;-72
2024/01/20 03:05:19;;;;;;;21.20;13.45;;;;;;;1.75;100.00;100501.41;5071179;28;20052;-74
2024/01/20 03:07:45;;;;;;;13.20;11.80;;;;;;;1.76;100.00;100510.06;5069858;28;20099;-74
2024/01/20 03:10:10;;;;;;;12.77;11.52;;;;;;;1.71;100.00;100505.00;5071050;28;20418;-74
2024/01/20 03:12:36;;;;;;;13.63;12.15;;;;;;;1.71;100.00;100515.44;5071468;28;20028;-74
2024/01/20 03:15:01;;;;;;;14.45;11.82;;;;;;;1.71;100.00;100520.63;5070979;28;20036;-74
2024/01/20 03:17:29;;;;;;;20.50;12.48;;;;;;;1.72;100.00;100529.28;5070473;28;20043;-74
2024/01/20 03:19:54;;;;;;;13.68;12.32;;;;;;;1.70;100.00;100528.53;5070950;28;20028;-75
2024/01/20 03:22:20;;;;;;;14.23;12.75;;;;;;;1.68;100.00;100531.19;5070500;28;20185;-72
2024/01/20 03:24:47;;;;;;;14.50;12.65;;;;;;;1.65;100.00;100531.28;5071201;28;20391;-74
2024/01/20 03:27:13;;;;;;;13.18;11.77;;;;;;;1.64;100.00;100543.47;5070810;28;20024;-74
2024/01/20 03:29:39;;;;;;;14.05;12.27;;;;;;;1.65;100.00;100541.69;5071522;28;20048;-75
2024/01/20 03:32:05;;;;;;;13.95;12.63;;;;;;;1.60;100.00;100538.44;5069607;28;20075;-74
2024/01/20 03:34:30;;;;;;;14.32;12.65;;;;;;;1.55;100.00;100537.78;5070503;28;20044;-75
2024/01/20 03:36:56;;;;;;;13.95;12.05;;;;;;;1.50;100.00;100547.53;5070758;28;20029;-74
2024/01/20 03:39:21;;;;;;;14.65;13.25;;;;;;;1.46;100.00;100541.63;5070445;28;20032;-74
2024/01/20 03:41:46;;;;;;;18.05;14.27;;;;;;;1.38;100.00;100554.06;5070939;28;20024;-73
2024/01/20 03:44:12;;;;;;;15.40;13.70;;;;;;;1.27;100.00;100552.81;5070536;28;20024;-74
2024/01/20 03:46:37;;;;;;;19.02;14.27;;;;;;;1.22;100.00;100556.44;5070504;28;21015;-74
2024/01/20 03:49:03;;;;;;;16.55;13.68;;;;;;;1.16;100.00;100556.66;5070491;28;20446;-74
2024/01/20 03:51:28;;;;;;;14.88;13.32;;;;;;;1.13;100.00;100564.56;5069759;28;20049;-74
2024/01/20 03:53:55;;;;;;;16.50;14.80;;;;;;;1.14;100.00;100568.03;5070509;28;20052;-74
2024/01/20 03:56:20;;;;;;;14.90;13.38;;;;;;;1.14;100.00;100566.28;5070418;28;20447;-73
2024/01/20 03:58:46;;;;;;;17.55;15.00;;;;;;;1.11;100.00;100571.59;5069308;28;20111;-74
2024/01/20 04:01:11;;;;;;;16.58;14.43;;;;;;;1.07;100.00;100569.16;5069840;28;20052;-74
2024/01/20 04:03:37;;;;;;;17.00;14.82;;;;;;;1.04;100.00;100567.53;5070266;28;20032;-75
2024/01/20 04:06:03;;;;;;;19.13;15.27;;;;;;;0.99;100.00;100576.41;5069565;28;20033;-74
2024/01/20 04:08:29;;;;;;;18.33;15.63;;;;;;;0.95;100.00;100577.41;5069541;28;20044;-73
2024/01/20 04:10:54;;;;;;;18.67;14.13;;;;;;;0.88;100.00;100584.63;5069568;28;20027;-74
2024/01/20 04:13:19;;;;;;;17.00;14.20;;;;;;;0.88;100.00;100587.22;5069758;28;20059;-74
2024/01/20 04:15:45;;;;;;;19.30;14.68;;;;;;;0.88;100.00;100584.63;5069835;28;20029;-74
2024/01/20 04:18:10;;;;;;;17.58;14.70;;;;;;;0.82;100.00;100584.84;5069812;28;20037;-74
2024/01/20 04:20:36;;;;;;;17.10;15.27;;;;;;;0.83;100.00;100591.72;5069206;28;20048;-75
2024/01/20 04:23:01;;;;;;;17.17;15.13;;;;;;;0.82;100.00;100595.25;5069714;28;20035;-75
2024/01/20 04:25:27;;;;;;;16.40;14.80;;;;;;;0.81;100.00;100603.94;5069118;28;20060;-75
2024/01/20 04:27:52;;;;;;;21.17;15.65;;;;;;;0.82;100.00;100605.63;5068396;28;20028;-75
2024/01/20 04:30:18;;;;;;;16.98;15.18;;;;;;;0.80;100.00;100612.63;5069315;28;20455;-74
2024/01/20 04:32:43;;;;;;;17.92;15.60;;;;;;;0.76;100.00;100611.91;5069739;28;20024;-75
2024/01/20 04:35:08;;;;;;;19.48;15.52;;;;;;;0.73;100.00;100618.94;5068048;28;20088;-75
2024/01/20 04:37:34;;;;;;;16.17;14.52;;;;;;;0.72;100.00;100620.69;5069089;28;20366;-74
2024/01/20 04:40:00;;;;;;;17.45;14.98;;;;;;;0.71;100.00;100628.53;5069110;28;20131;-73
2024/01/20 04:42:26;;;;;;;18.25;15.88;;;;;;;0.65;100.00;100636.56;5069257;28;20029;-74
2024/01/20 04:44:51;;;;;;;19.88;16.55;;;;;;;0.58;100.00;100638.53;5069395;28;20138;-74
2024/01/20 04:47:17;;;;;;;19.38;16.98;;;;;;;0.53;100.00;100634.41;5068872;28;20036;-74
2024/01/20 04:49:42;;;;;;;20.58;16.25;;;;;;;0.47;100.00;100642.41;5069402;28;20090;-73
2024/01/20 04:52:08;;;;;;;20.20;16.17;;;;;;;0.42;100.00;100637.34;5068731;28;20033;-74
2024/01/20 04:54:33;;;;;;;18.35;15.93;;;;;;;0.37;100.00;100640.09;5069107;28;20024;-74
2024/01/20 04:56:58;;;;;;;20.00;15.10;;;;;;;0.30;100.00;100638.59;5069216;28;20032;-74
2024/01/20 04:59:24;;;;;;;19.17;17.13;;;;;;;0.26;100.00;100642.22;5068393;28;20036;-74
2024/01/20 05:01:50;;;;;;;23.48;18.65;;;;;;;0.20;100.00;100650.22;5068964;28;20028;-74
2024/01/20 05:04:16;;;;;;;22.35;18.60;;;;;;;0.17;100.00;100650.31;5068561;28;20107;-74
2024/01/20 05:06:45;;;;;;;19.15;17.02;;;;;;;0.17;100.00;100658.13;5068968;28;20587;-74
2024/01/20 05:09:12;;;;;;;18.63;15.18;;;;;;;0.11;100.00;100673.88;5067803;28;20589;-74
2024/01/20 05:11:37;;;;;;;16.52;14.68;;;;;;;0.09;100.00;100675.66;5066766;28;20382;-74
2024/01/20 05:14:03;;;;;;;17.20;15.38;;;;;;;0.01;100.00;100682.84;5069350;28;20035;-74
2024/01/20 05:16:28;;;;;;;22.83;18.70;;;;;;;-0.12;100.00;100691.94;5067452;28;20809;-73
2024/01/20 05:18:53;;;;;;;28.58;20.55;;;;;;;-0.18;100.00;100694.72;5068010;28;20037;-74
2024/01/20 05:21:19;;;;;;;28.48;21.23;;;;;;;-0.19;100.00;100693.00;5068296;28;20068;-75
2024/01/20 05:23:45;;;;;;;22.75;19.15;;;;;;;-0.19;100.00;100695.59;5067206;28;20109;-74
2024/01/20 05:26:10;;;;;;;23.85;19.38;;;;;;;-0.19;100.00;100700.78;5068522;28;20078;-74
2024/01/20 05:28:35;;;;;;;22.23;18.75;;;;;;;-0.21;100.00;100708.63;5067409;28;20056;-74
2024/01/20 05:31:01;;;;;;;23.73;18.42;;;;;;;-0.22;100.00;100716.44;5068914;28;20480;-74
2024/01/20 05:33:26;;;;;;;26.45;18.70;;;;;;;-0.23;100.00;100725.97;5067354;28;20032;-74
2024/01/20 05:35:51;;;;;;;23.75;19.42;;;;;;;-0.22;100.00;100725.06;5068895;28;20078;-74
2024/01/20 05:38:17;;;;;;;25.77;18.60;;;;;;;-0.22;100.00;100737.19;5067938;28;20081;-73
2024/01/20 05:40:42;;;;;;;20.48;17.38;;;;;;;-0.21;100.00;100739.75;5068531;28;20086;-73
2024/01/20 05:43:08;;;;;;;23.88;18.98;;;;;;;-0.18;100.00;100746.59;5068046;28;20029;-73
2024/01/20 05:45:33;;;;;;;21.42;18.33;;;;;;;-0.17;100.00;100750.88;5068539;28;20059;-73
2024/01/20 05:47:58;;;;;;;20.83;18.13;;;;;;;-0.17;100.00;100751.72;5068592;28;20032;-73
2024/01/20 05:50:24;;;;;;;20.20;17.70;;;;;;;-0.14;100.00;100755.97;5068602;28;20108;-72
2024/01/20 05:52:50;;;;;;;22.00;18.05;;;;;;;-0.11;100.00;100768.84;5068776;28;20032;-73
2024/01/20 05:55:15;;;;;;;19.70;17.65;;;;;;;-0.09;100.00;100769.66;5067603;28;20028;-74
2024/01/20 05:57:41;;;;;;;19.73;17.38;;;;;;;-0.06;100.00;100774.78;5067867;28;20070;-73
2024/01/20 06:00:09;;;;;;;19.60;17.33;;;;;;;-0.05;100.00;100776.44;5068346;28;20441;-74
2024/01/20 06:02:34;;;;;;;20.63;17.95;;;;;;;-0.04;100.00;100793.72;5068312;28;20041;-74
2024/01/20 06:05:00;;;;;;;21.98;18.05;;;;;;;-0.04;100.00;100798.91;5068754;28;20090;-74
2024/01/20 06:07:25;;;;;;;19.92;17.77;;;;;;;-0.04;100.00;100802.34;5068251;28;20036;-74
2024/01/20 06:09:50;;;;;;;20.20;17.63;;;;;;;-0.03;100.00;100806.66;5068453;28;20084;-74
2024/01/20 06:12:16;;;;;;;21.42;17.23;;;;;;;-0.04;100.00;100814.47;5067628;28;20057;-73
2024/01/20 06:14:41;;;;;;;19.60;17.65;;;;;;;0.02;100.00;100816.03;5068356;28;20029;-73
2024/01/20 06:17:07;;;;;;;20.42;16.63;;;;;;;-0.02;100.00;100817.88;5068349;28;20422;-73
2024/01/20 06:19:32;;;;;;;21.05;17.00;;;;;;;-0.06;100.00;100821.47;5068420;28;20116;-73
2024/01/20 06:21:57;;;;;;;20.50;17.90;;;;;;;-0.13;100.00;100819.94;5068552;28;20055;-73
2024/01/20 06:24:23;;;;;;;20.55;16.98;;;;;;;-0.21;100.00;100837.47;5068544;28;20040;-72
2024/01/20 06:26:48;;;;;;;21.17;17.13;;;;;;;-0.27;100.00;100841.09;5066754;28;20453;-73
2024/01/20 06:29:13;;;;;;;19.65;17.33;;;;;;;-0.29;100.00;100845.47;5065720;28;20085;-73
2024/01/20 06:31:39;;;;;;;21.25;17.42;;;;;;;-0.28;100.00;100851.50;5064403;28;20029;-73
2024/01/20 06:34:04;;;;;;;19.90;17.75;;;;;;;-0.34;100.00;100854.25;5062159;28;20081;-74
2024/01/20 06:36:30;;;;;;;22.98;17.75;;;;;;;-0.46;100.00;100853.72;5068920;28;20043;-73
2024/01/20 06:38:55;;;;;;;20.75;18.08;;;;;;;-0.58;100.00;100853.19;5069014;28;20109;-75
2024/01/20 06:41:20;;;;;;;21.33;17.10;;;;;;;-0.45;100.00;100860.59;5071081;28;20028;-73
2024/01/20 06:43:46;;;;;;;23.40;17.90;;;;;;;-0.45;100.00;100859.75;5065050;28;20135;-74
2024/01/20 06:46:11;;;;;;;25.23;19.20;;;;;;;-0.35;100.00;100874.16;5069773;28;20109;-74
2024/01/20 06:48:37;;;;;;;23.20;17.95;;;;;;;-0.28;100.00;100872.25;5068913;28;20039;-74
2024/01/20 06:51:03;;;;;;;21.85;18.25;;;;;;;-0.31;100.00;100877.53;5070540;28;20036;-73
2024/01/20 06:53:29;;;;;;;23.27;19.42;;;;;;;-0.32;100.00;100879.28;5064065;28;20485;-73
2024/01/20 06:55:55;;;;;;;20.63;18.33;;;;;;;-0.39;100.00;100880.34;5069453;28;20449;-74
2024/01/20 06:58:21;;;;;;;21.13;18.80;;;;;;;-0.42;100.00;100891.66;5068264;28;20042;-73
2024/01/20 07:00:47;;;;;;;22.60;19.02;;;;;;;-0.43;100.00;100889.09;5067817;28;20038;-73
2024/01/20 07:03:12;;;;;;;22.25;19.00;;;;;;;-0.47;100.00;100898.69;5065987;28;20036;-74
2024/01/20 07:05:37;;;;;;;24.15;18.48;;;;;;;-0.46;100.00;100900.38;5070129;28;20057;-73
2024/01/20 07:08:04;;;;;;;23.33;19.02;;;;;;;-0.42;100.00;100904.63;5067384;28;20033;-72
2024/01/20 07:10:29;;;;;;;28.45;20.08;;;;;;;-0.42;100.00;100904.63;5068146;28;20428;-73
2024/01/20 07:12:55;;;;;;;29.27;20.35;;;;;;;-0.37;100.00;100914.00;5069481;28;20031;-74
2024/01/20 07:15:20;;;;;;;26.63;19.70;;;;;;;-0.31;100.00;100913.84;5070588;28;20040;-74
2024/01/20 07:17:46;;;;;;;25.65;19.45;;;;;;;-0.25;100.00;100918.88;5071274;28;20025;-74
2024/01/20 07:20:12;;;;;;;24.17;18.45;;;;;;;-0.24;100.00;100920.59;5070080;28;20040;-72
2024/01/20 07:22:37;;;;;;;27.40;20.23;;;;;;;-0.22;100.00;100923.97;5071083;28;20036;-74
2024/01/20 07:25:04;;;;;;;22.58;19.00;;;;;;;-0.26;100.00;100924.94;5071033;28;20032;-73
2024/01/20 07:27:29;;;;;;;23.33;19.80;;;;;;;-0.32;100.00;100938.94;5070219;28;20044;-72
2024/01/20 07:29:55;;;;;;;26.55;20.00;;;;;;;-0.35;100.00;100939.00;5070541;28;20040;-73
2024/01/20 07:32:20;;;;;;;25.48;20.02;;;;;;;-0.34;100.00;100952.81;5070691;28;20569;-74
2024/01/20 07:34:46;;;;;;;23.83;19.00;;;;;;;-0.30;100.00;100951.88;5070250;28;20028;-74
2024/01/20 07:37:11;;;;;;;28.30;19.65;;;;;;;-0.37;100.00;100955.50;5070764;28;20480;-72
2024/01/20 07:39:37;;;;;;;22.52;18.40;;;;;;;-0.39;100.00;100959.88;5071370;28;20466;-74
2024/01/20 07:42:03;;;;;;;24.70;18.90;;;;;;;-0.47;100.00;100960.91;5070176;28;20077;-76
2024/01/20 07:44:28;;;;;;;25.42;19.63;;;;;;;-0.50;100.00;100965.34;5067240;28;20044;-75
2024/01/20 07:46:54;;;;;;;23.00;19.88;;;;;;;-0.51;100.00;100974.00;5069740;28;20024;-76
2024/01/20 07:49:19;;;;;;;26.33;20.85;;;;;;;-0.53;100.00;100974.03;5071382;28;20039;-74
2024/01/20 07:51:44;;;;;;;24.80;20.00;;;;;;;-0.48;100.00;100974.81;5066720;28;20534;-74
2024/01/20 07:54:12;;;;;;;26.10;20.55;;;;;;;-0.35;100.00;100979.69;5067639;28;20033;-74
2024/01/20 07:56:37;;;;;;;24.25;19.98;;;;;;;-0.22;100.00;100981.88;5070941;28;20115;-74
2024/01/20 07:59:03;;;;;;;27.08;20.58;;;;;;;-0.39;100.00;100988.41;5070198;28;20123;-73
2024/01/20 08:01:29;;;;;;;26.00;19.55;;;;;;;-0.14;100.00;100984.28;5069013;28;20448;-74
2024/01/20 08:03:54;;;;;;;24.33;19.38;;;;;;;0.03;100.00;100991.63;5070469;28;20025;-75
2024/01/20 08:06:19;;;;;;;24.42;18.30;;;;;;;0.18;100.00;100997.22;5070063;28;20477;-76
2024/01/20 08:08:45;;;;;;;22.92;17.75;;;;;;;0.34;100.00;100995.94;5066625;28;20036;-76
2024/01/20 08:11:12;;;;;;;20.98;17.92;;;;;;;0.45;100.00;100994.75;5070275;28;20111;-73
2024/01/20 08:13:37;;;;;;;22.17;17.60;;;;;;;0.49;100.00;101001.56;4365962;28;10000708;-77
2024/01/20 08:16:03;;;;;;;21.23;16.95;;;;;;;0.57;100.00;101010.00;5048659;28;20297;-74
2024/01/20 08:18:29;;;;;;;23.92;17.88;;;;;;;0.64;100.00;101011.53;5066949;28;20040;-75
2024/01/20 08:20:55;;;;;;;21.70;17.48;;;;;;;0.57;100.00;101012.59;5066858;28;20144;-75
2024/01/20 08:23:20;;;;;;;20.52;17.25;;;;;;;0.53;100.00;101013.59;5066848;28;20032;-75
2024/01/20 08:25:45;;;;;;;25.63;17.92;;;;;;;0.54;100.00;101013.50;5067430;28;20161;-74
2024/01/20 08:28:11;;;;;;;22.75;17.58;;;;;;;0.59;100.00;101018.59;5066120;28;20044;-74
2024/01/20 08:30:36;;;;;;;25.17;18.33;;;;;;;0.67;100.00;101027.00;5067069;28;20059;-74
2024/01/20 08:33:03;;;;;;;24.77;18.02;;;;;;;0.81;100.00;101024.88;5067435;28;20035;-74
2024/01/20 08:35:28;;;;;;;21.48;18.27;;;;;;;0.93;100.00;101023.66;5065248;28;20035;-74
2024/01/20 08:37:53;;;;;;;21.67;18.25;;;;;;;1.05;100.00;101034.53;5064980;28;20036;-74
2024/01/20 08:40:19;;;;;;;26.02;19.20;;;;;;;1.16;100.00;101037.63;5063210;28;20036;-74
2024/01/20 08:42:44;;;;;;;21.83;18.23;;;;;;;1.00;100.00;101044.19;5063674;28;20025;-74
2024/01/20 08:45:10;;;;;;;21.20;17.77;;;;;;;1.23;100.00;101049.56;5064407;28;20475;-74
2024/01/20 08:47:35;;;;;;;20.70;17.63;;;;;;;1.35;100.00;101052.69;5066928;28;20032;-74
2024/01/20 08:50:00;;;;;;;22.42;18.20;;;;;;;1.34;100.00;101056.16;5063109;28;20060;-74
2024/01/20 08:52:27;;;;;;;20.13;17.48;;;;;;;1.50;100.00;101057.38;5062342;28;20090;-74
2024/01/20 08:54:52;;;;;;;21.23;17.63;;;;;;;1.37;100.00;101056.91;5063131;28;20036;-74
2024/01/20 08:57:18;;;;;;;20.00;17.80;;;;;;;1.58;100.00;101073.59;5065616;28;20036;-73
2024/01/20 08:59:43;;;;;;;21.67;18.35;;;;;;;1.65;100.00;101059.47;5066206;28;20089;-75
2024/01/20 09:02:09;;;;;;;23.13;17.55;;;;;;;1.68;100.00;101055.94;5065260;28;20037;-75
2024/01/20 09:04:34;;;;;;;27.05;18.80;;;;;;;1.71;100.00;101067.06;5065565;28;20496;-76
2024/01/20 09:07:01;;;;;;;25.50;17.88;;;;;;;1.81;100.00;101068.50;5065743;28;20064;-74
2024/01/20 09:09:26;;;;;;;23.38;17.90;;;;;;;1.88;100.00;101064.78;5065323;28;20067;-74
2024/01/20 09:11:51;;;;;;;23.77;18.25;;;;;;;2.01;100.00;101076.47;5066218;28;20137;-75
2024/01/20 09:14:17;;;;;;;21.48;17.33;;;;;;;2.08;100.00;101071.91;5064336;28;20177;-75
2024/01/20 09:16:42;;;;;;;21.58;17.95;;;;;;;2.14;100.00;101078.66;5065845;28;20032;-73
2024/01/20 09:19:08;;;;;;;24.52;18.27;;;;;;;2.17;100.00;101070.75;5064741;28;20041;-73
2024/01/20 09:21:33;;;;;;;23.90;18.70;;;;;;;2.11;100.00;101074.44;5065019;28;20044;-74
2024/01/20 09:24:00;;;;;;;25.88;18.50;;;;;;;2.31;100.00;101078.94;5066129;28;20035;-75
2024/01/20 09:26:25;;;;;;;21.13;17.92;;;;;;;2.46;100.00;101088.81;5065419;28;20103;-75
2024/01/20 09:28:51;;;;;;;21.17;18.23;;;;;;;2.39;100.00;101097.75;5064229;28;20039;-75
2024/01/20 09:31:16;;;;;;;23.75;17.60;;;;;;;2.37;100.00;101094.34;5065443;28;20025;-75
2024/01/20 09:33:43;;;;;;;22.90;18.45;;;;;;;2.55;100.00;101093.69;5063399;28;20060;-75
2024/01/20 09:36:09;;;;;;;19.98;16.80;;;;;;;2.57;100.00;101097.09;5064819;28;20059;-75
2024/01/20 09:38:35;;;;;;;22.33;19.00;;;;;;;2.58;100.00;101097.97;5064997;28;20029;-74
2024/01/20 09:41:00;;;;;;;25.13;18.50;;;;;;;2.73;100.00;101100.84;5065522;28;20507;-74
2024/01/20 09:43:26;;;;;;;24.05;18.00;;;;;;;2.74;100.00;101099.97;5064158;28;20068;-75
2024/01/20 09:45:52;;;;;;;23.33;18.73;;;;;;;2.88;100.00;101099.47;5064037;28;20029;-74
2024/01/20 09:48:18;;;;;;;22.77;18.60;;;;;;;2.89;100.00;101107.19;5065856;28;20050;-75
2024/01/20 09:50:44;;;;;;;20.10;17.80;;;;;;;3.01;100.00;101105.03;5064819;28;20116;-75
2024/01/20 09:53:14;;;;;;;22.13;18.35;;;;;;;2.89;100.00;101104.59;5065361;28;20135;-74
2024/01/20 09:55:44;;;;;;;24.63;18.63;;;;;;;3.04;100.00;101099.72;5065980;28;20140;-75
2024/01/20 09:58:15;;;;;;;22.23;17.10;;;;;;;3.14;100.00;101099.31;5065447;28;20040;-74
2024/01/20 10:00:42;;;;;;;24.85;18.02;;;;;;;3.29;100.00;101113.56;4366066;28;10000737;-75
2024/01/20 10:03:09;;;;;;;24.35;18.40;;;;;;;3.37;100.00;101101.03;5064885;28;20055;-74
2024/01/20 10:05:35;;;;;;;22.42;18.70;;;;;;;3.46;100.00;101105.91;5067696;28;20036;-74
2024/01/20 10:08:02;;;;;;;22.63;17.60;;;;;;;3.53;100.00;101107.38;5068016;28;20112;-74
2024/01/20 10:10:28;;;;;;;22.92;17.52;;;;;;;3.50;100.00;101117.91;5070982;28;20036;-74
2024/01/20 10:12:54;;;;;;;23.48;17.75;;;;;;;3.65;100.00;101113.88;5072334;28;20033;-74
2024/01/20 10:15:27;;;;;;;20.73;16.20;;;;;;;3.70;100.00;101115.38;5072320;28;20396;-75
2024/01/20 10:17:54;;;;;;;23.50;15.50;;;;;;;3.61;100.00;101110.50;5069303;28;20024;-75
2024/01/20 10:20:33;;;;;;;19.67;15.90;;;;;;;3.74;100.00;101104.81;5070994;28;20052;-74
2024/01/20 10:23:04;;;;;;;23.08;15.73;;;;;;;3.81;100.00;101106.25;5072414;28;20106;-74
2024/01/20 10:25:29;;;;;;;20.17;16.95;;;;;;;3.89;100.00;101104.19;5070502;28;20189;-73
2024/01/20 10:27:55;;;;;;;23.05;18.05;;;;;;;3.94;100.00;101108.31;5070402;28;20108;-75
2024/01/20 10:30:21;;;;;;;23.10;17.23;;;;;;;3.98;100.00;101106.41;5066818;28;20098;-74
2024/01/20 10:32:48;;;;;;;20.55;16.30;;;;;;;3.87;100.00;101106.00;5071589;28;20475;-75
2024/01/20 10:35:13;;;;;;;20.92;17.33;;;;;;;3.94;100.00;101102.25;5070579;28;20036;-75
2024/01/20 10:37:42;;;;;;;19.17;16.02;;;;;;;3.97;100.00;101102.09;5070585;28;20077;-74
2024/01/20 10:40:15;;;;;;;20.55;15.93;;;;;;;4.04;100.00;101098.34;5070642;28;20115;-75
2024/01/20 10:42:45;;;;;;;17.40;15.43;;;;;;;4.15;100.00;101103.09;5071298;28;20043;-74
2024/01/20 10:45:18;;;;;;;15.82;14.05;;;;;;;4.23;100.00;101098.41;5070770;28;20074;-74
2024/01/20 10:48:07;;;;;;;15.75;13.20;;;;;;;4.07;100.00;101103.41;5071614;28;20025;-74
2024/01/20 10:50:35;;;;;;;17.13;13.98;;;;;;;4.17;100.00;101099.53;5071032;28;20115;-74
2024/01/20 10:53:02;;;;;;;19.08;14.63;;;;;;;4.27;100.00;101100.81;5070815;28;20078;-75
2024/01/20 10:55:30;;;;;;;15.30;13.57;;;;;;;4.35;100.00;101093.50;5070560;28;20530;-72
2024/01/20 10:57:57;;;;;;;16.50;12.35;;;;;;;4.36;100.00;101100.41;5071054;28;20032;-74
2024/01/20 11:00:23;;;;;;;14.38;11.43;;;;;;;4.42;100.00;101100.16;5070546;28;20115;-75
2024/01/20 11:02:49;;;;;;;14.90;10.25;;;;;;;4.46;100.00;101095.66;5071303;28;20517;-77
2024/01/20 11:05:21;;;;;;;13.20;10.00;;;;;;;4.47;100.00;101092.97;5070945;28;20033;-73